createdAt,value
2023-01-15T00:00:39.181Z,75.16
2023-01-15T00:03:07.216Z,75.65
2023-01-15T00:05:49.935Z,75.43
2023-01-15T00:08:38.314Z,75.13
2023-01-15T00:11:14.040Z,75.55
2023-01-15T00:13:48.484Z,75.60
2023-01-15T00:16:23.725Z,75.85
2023-01-15T00:19:01.376Z,74.68
2023-01-15T00:21:39.194Z,74.01
2023-01-15T00:24:39.903Z,74.30
2023-01-15T00:27:43.781Z,75.36
2023-01-15T00:30:29.588Z,74.75
2023-01-15T00:33:06.356Z,75.36
2023-01-15T00:35:44.457Z,74.78
2023-01-15T00:38:21.110Z,74.15
2023-01-15T00:40:57.897Z,73.37
2023-01-15T00:43:25.002Z,72.95
2023-01-15T00:45:59.495Z,73.41
2023-01-15T00:48:28.857Z,73.87
2023-01-15T00:50:55.578Z,74.56
2023-01-15T00:53:31.785Z,75.14
2023-01-15T00:56:06.919Z,74.62
2023-01-15T00:58:36.835Z,74.67
2023-01-15T01:03:49.205Z,76.10
2023-01-15T01:06:17.331Z,75.55
2023-01-15T01:08:48.003Z,75.32
2023-01-15T01:11:17.446Z,76.05
2023-01-15T01:13:45.264Z,75.63
2023-01-15T01:16:27.418Z,75.91
2023-01-15T01:19:01.891Z,75.64
2023-01-15T01:21:28.711Z,75.50
2023-01-15T01:24:00.903Z,75.09
2023-01-15T01:26:31.414Z,75.27
2023-01-15T01:28:58.569Z,75.33
2023-01-15T01:31:28.301Z,75.67
2023-01-15T01:33:57.932Z,75.11
2023-01-15T01:36:33.940Z,75.23
2023-01-15T01:39:07.735Z,75.77
2023-01-15T01:41:36.554Z,75.46
2023-01-15T01:44:35.025Z,75.85
2023-01-15T01:47:16.596Z,76.97
2023-01-15T01:49:49.242Z,75.83
2023-01-15T01:52:21.326Z,74.90
2023-01-15T01:54:50.013Z,75.22
2023-01-15T02:00:07.247Z,75.73
2023-01-15T02:02:34.261Z,75.04
2023-01-15T02:05:07.469Z,75.37
2023-01-15T02:07:38.655Z,75.67
2023-01-15T02:10:17.267Z,75.83
2023-01-15T02:12:57.588Z,77.38
2023-01-15T02:15:38.686Z,75.84
2023-01-15T02:18:23.968Z,74.90
2023-01-15T02:21:30.340Z,75.33
2023-01-15T02:24:28.544Z,75.94
2023-01-15T02:27:19.664Z,75.94
2023-01-15T02:30:14.020Z,76.04
2023-01-15T02:35:58.574Z,76.38
2023-01-15T02:38:32.633Z,77.08
2023-01-15T02:41:09.453Z,77.54
2023-01-15T02:43:47.672Z,76.59
2023-01-15T02:46:29.817Z,76.01
2023-01-15T02:49:07.690Z,75.65
2023-01-15T02:51:49.053Z,75.57
2023-01-15T02:54:30.232Z,75.25
2023-01-15T02:57:02.610Z,75.89
2023-01-15T02:59:44.100Z,76.42
2023-01-15T03:02:27.469Z,76.23
2023-01-15T03:05:43.876Z,76.68
2023-01-15T03:08:18.233Z,76.09
2023-01-15T03:11:07.611Z,76.34
2023-01-15T03:13:47.147Z,76.02
2023-01-15T03:16:35.194Z,74.48
2023-01-15T03:19:39.532Z,74.82
2023-01-15T03:22:13.335Z,74.66
2023-01-15T03:25:21.634Z,74.58
2023-01-15T03:27:55.327Z,75.29
2023-01-15T03:30:26.357Z,75.30
2023-01-15T03:33:01.941Z,75.10
2023-01-15T03:36:25.090Z,74.37
2023-01-15T03:39:09.001Z,74.99
2023-01-15T03:42:02.811Z,75.66
2023-01-15T03:44:58.882Z,76.14
2023-01-15T03:48:18.916Z,74.87
2023-01-15T03:51:34.756Z,74.99
2023-01-15T03:54:10.350Z,74.89
2023-01-15T04:00:34.424Z,74.82
2023-01-15T04:03:17.001Z,75.35
2023-01-15T04:05:44.540Z,75.40
2023-01-15T04:08:22.792Z,75.17
2023-01-15T04:11:22.384Z,75.24
2023-01-15T04:13:56.291Z,75.08
2023-01-15T04:16:41.662Z,75.15
2023-01-15T04:19:17.237Z,75.27
2023-01-15T04:21:44.376Z,75.73
2023-01-15T04:24:18.989Z,75.46
2023-01-15T04:26:58.106Z,75.47
2023-01-15T04:34:55.499Z,75.44
2023-01-15T04:37:23.237Z,76.02
2023-01-15T04:39:52.992Z,75.42
2023-01-15T04:42:48.467Z,75.77
2023-01-15T04:45:36.433Z,74.33
2023-01-15T04:48:15.266Z,74.23
2023-01-15T04:50:53.383Z,73.93
2023-01-15T04:53:25.920Z,74.94
2023-01-15T04:55:53.087Z,74.70
2023-01-15T04:58:33.500Z,73.97
2023-01-15T05:01:54.383Z,74.55
2023-01-15T05:04:31.078Z,73.98
2023-01-15T05:07:06.187Z,73.91
2023-01-15T05:09:37.447Z,74.57
2023-01-15T05:12:22.017Z,74.65
2023-01-15T05:14:49.577Z,74.64
2023-01-15T05:17:41.401Z,74.57
2023-01-15T05:20:26.878Z,74.42
2023-01-15T05:23:09.367Z,74.17
2023-01-15T05:25:52.297Z,73.60
2023-01-15T05:28:31.676Z,74.00
2023-01-15T05:31:09.513Z,74.32
2023-01-15T05:33:47.029Z,74.44
2023-01-15T05:36:23.527Z,74.70
2023-01-15T05:38:50.457Z,76.49
2023-01-15T05:41:47.872Z,74.49
2023-01-15T05:44:34.566Z,74.16
2023-01-15T05:47:20.052Z,74.14
2023-01-15T05:49:48.771Z,74.92
2023-01-15T05:52:24.493Z,75.33
2023-01-15T05:55:01.877Z,75.36
2023-01-15T05:57:36.920Z,75.20
2023-01-15T06:00:09.981Z,75.78
2023-01-15T06:02:45.790Z,74.08
2023-01-15T06:05:33.564Z,74.85
2023-01-15T06:08:23.022Z,74.85
2023-01-15T06:11:09.221Z,75.72
2023-01-15T06:13:48.453Z,75.44
2023-01-15T06:16:35.215Z,75.48
2023-01-15T06:19:15.718Z,75.43
2023-01-15T06:21:48.234Z,75.86
2023-01-15T06:24:23.664Z,75.43
2023-01-15T06:26:51.955Z,75.27
2023-01-15T06:29:30.016Z,75.88
2023-01-15T06:32:20.178Z,75.37
2023-01-15T06:34:49.962Z,75.86
2023-01-15T06:37:30.103Z,75.04
2023-01-15T06:40:06.803Z,75.39
2023-01-15T06:42:58.330Z,75.75
2023-01-15T06:45:44.062Z,75.41
2023-01-15T06:48:29.271Z,75.57
2023-01-15T06:51:11.417Z,75.33
2023-01-15T06:53:49.904Z,74.77
2023-01-15T06:56:35.557Z,73.92
2023-01-15T06:59:14.284Z,73.94
2023-01-15T07:02:01.640Z,73.75
2023-01-15T07:04:39.881Z,73.70
2023-01-15T07:07:32.686Z,73.86
2023-01-15T07:10:10.858Z,74.93
2023-01-15T07:12:52.389Z,73.83
2023-01-15T07:15:19.478Z,73.48
2023-01-15T07:17:52.281Z,73.92
2023-01-15T07:20:30.055Z,74.73
2023-01-15T07:22:56.848Z,74.20
2023-01-15T07:25:23.547Z,74.33
2023-01-15T07:28:07.451Z,73.53
2023-01-15T07:30:37.343Z,72.99
2023-01-15T07:33:25.138Z,73.09
2023-01-15T07:36:02.771Z,73.87
2023-01-15T07:38:31.322Z,74.61
2023-01-15T07:41:34.359Z,73.61
2023-01-15T07:44:39.134Z,73.43
2023-01-15T07:47:47.895Z,72.82
2023-01-15T07:50:30.740Z,73.67
2023-01-15T07:53:10.980Z,73.58
2023-01-15T07:55:37.802Z,73.97
2023-01-15T07:58:14.975Z,74.64
2023-01-15T08:01:12.618Z,73.89
2023-01-15T08:03:46.886Z,74.03
2023-01-15T08:06:15.598Z,73.02
2023-01-15T08:08:47.672Z,73.31
2023-01-15T08:11:35.503Z,73.38
2023-01-15T08:14:23.978Z,74.27
2023-01-15T08:16:50.825Z,72.96
2023-01-15T08:19:27.714Z,73.07
2023-01-15T08:21:54.534Z,73.69
2023-01-15T08:24:33.275Z,73.88
2023-01-15T08:27:09.030Z,74.12
2023-01-15T08:29:49.535Z,74.45
2023-01-15T08:32:19.284Z,74.16
2023-01-15T08:34:55.510Z,74.72
2023-01-15T08:37:34.185Z,73.98
2023-01-15T08:40:21.221Z,73.74
2023-01-15T08:42:59.890Z,74.48
2023-01-15T08:45:32.523Z,73.20
2023-01-15T08:48:05.592Z,73.94
2023-01-15T08:50:38.022Z,73.68
2023-01-15T08:53:28.229Z,73.10
2023-01-15T08:55:56.876Z,73.96
2023-01-15T08:58:33.546Z,73.88
2023-01-15T09:01:12.061Z,72.62
2023-01-15T09:03:48.355Z,72.73
2023-01-15T09:06:28.834Z,72.29
2023-01-15T09:08:56.421Z,73.40
2023-01-15T09:11:25.148Z,72.95
2023-01-15T09:13:55.035Z,73.17
2023-01-15T09:16:41.916Z,73.04
2023-01-15T09:19:10.449Z,72.63
2023-01-15T09:21:45.670Z,73.23
2023-01-15T09:24:31.404Z,71.97
2023-01-15T09:27:25.472Z,72.72
2023-01-15T09:30:04.285Z,72.76
2023-01-15T09:32:40.001Z,73.36
2023-01-15T09:35:10.891Z,73.12
2023-01-15T09:37:40.909Z,73.12
2023-01-15T09:40:20.176Z,72.93
2023-01-15T09:43:04.202Z,73.00
2023-01-15T09:45:39.974Z,72.29
2023-01-15T09:48:41.256Z,73.37
2023-01-15T09:51:36.910Z,72.52
2023-01-15T09:54:11.103Z,72.21
2023-01-15T09:56:55.757Z,72.76
2023-01-15T09:59:41.383Z,72.87
2023-01-15T10:02:47.391Z,72.07
2023-01-15T10:05:23.788Z,72.88
2023-01-15T10:08:07.374Z,72.77
2023-01-15T10:10:46.584Z,72.38
2023-01-15T10:13:31.754Z,72.61
2023-01-15T10:15:59.570Z,72.82
2023-01-15T10:18:37.118Z,72.73
2023-01-15T10:21:39.715Z,73.43
2023-01-15T10:24:53.360Z,73.39
2023-01-15T10:27:48.928Z,74.07
2023-01-15T10:30:43.265Z,72.30
2023-01-15T10:33:34.919Z,72.02
2023-01-15T10:36:26.305Z,72.12
2023-01-15T10:42:33.672Z,73.28
2023-01-15T10:45:14.854Z,74.40
2023-01-15T10:48:31.235Z,72.64
2023-01-15T10:51:10.530Z,72.60
2023-01-15T10:54:09.276Z,73.25
2023-01-15T10:57:09.442Z,73.66
2023-01-15T10:59:57.045Z,73.16
2023-01-15T11:02:31.854Z,73.26
2023-01-15T11:05:12.449Z,73.29
2023-01-15T11:08:26.362Z,73.50
2023-01-15T11:10:43.504Z,73.89
2023-01-15T11:13:41.571Z,74.00
2023-01-15T11:16:46.278Z,73.39
2023-01-15T11:19:43.158Z,73.36
2023-01-15T11:22:20.737Z,72.75
2023-01-15T11:24:54.357Z,72.61
2023-01-15T11:27:31.277Z,72.58
2023-01-15T11:30:15.469Z,72.64
2023-01-15T11:32:51.817Z,72.94
2023-01-15T11:35:19.608Z,72.94
2023-01-15T11:37:49.230Z,72.66
2023-01-15T11:40:25.730Z,72.01
2023-01-15T11:43:13.771Z,72.77
2023-01-15T11:46:08.165Z,72.59
2023-01-15T11:49:09.611Z,72.64
2023-01-15T11:51:56.191Z,73.31
2023-01-15T11:54:40.941Z,72.81
2023-01-15T11:57:13.095Z,72.90
2023-01-15T11:59:41.510Z,73.04
2023-01-15T12:02:46.766Z,73.05
2023-01-15T12:05:37.029Z,73.29
2023-01-15T12:08:37.145Z,73.74
2023-01-15T12:11:57.148Z,72.67
2023-01-15T12:14:49.619Z,72.48
2023-01-15T12:17:42.072Z,72.92
2023-01-15T12:20:50.090Z,73.31
2023-01-15T12:24:13.477Z,73.40
2023-01-15T12:27:11.803Z,73.93
2023-01-15T12:29:48.440Z,73.91
2023-01-15T12:32:28.999Z,73.99
2023-01-15T12:35:28.518Z,73.43
2023-01-15T12:38:39.485Z,73.13
2023-01-15T12:41:15.029Z,74.08
2023-01-15T12:44:18.370Z,74.29
2023-01-15T12:46:48.051Z,73.36
2023-01-15T12:50:08.355Z,73.34
2023-01-15T12:52:44.545Z,73.12
2023-01-15T12:55:20.017Z,72.82
2023-01-15T12:58:01.254Z,72.38
2023-01-15T13:01:06.015Z,72.79
2023-01-15T13:03:49.417Z,73.46
2023-01-15T13:06:24.496Z,73.19
2023-01-15T13:09:17.893Z,73.11
2023-01-15T13:11:44.893Z,73.46
2023-01-15T13:14:22.715Z,73.26
2023-01-15T13:17:06.039Z,71.83
2023-01-15T13:20:15.415Z,71.99
2023-01-15T13:23:04.858Z,73.08
2023-01-15T13:25:43.663Z,72.99
2023-01-15T13:28:57.474Z,71.41
2023-01-15T13:31:39.534Z,72.00
2023-01-15T13:34:39.139Z,72.62
2023-01-15T13:37:44.211Z,71.69
2023-01-15T13:40:38.898Z,71.83
2023-01-15T13:43:19.225Z,71.43
2023-01-15T13:45:59.094Z,72.77
2023-01-15T13:48:57.549Z,73.57
2023-01-15T13:51:41.342Z,72.98
2023-01-15T13:54:33.932Z,73.29
2023-01-15T13:57:28.085Z,72.99
2023-01-15T14:00:05.017Z,72.85
2023-01-15T14:02:50.670Z,73.53
2023-01-15T14:05:23.332Z,72.79
2023-01-15T14:08:00.995Z,73.08
2023-01-15T14:10:55.133Z,73.21
2023-01-15T14:13:54.157Z,73.16
2023-01-15T14:17:02.492Z,72.95
2023-01-15T14:19:56.843Z,73.03
2023-01-15T14:25:48.530Z,73.69
2023-01-15T14:28:43.293Z,74.42
2023-01-15T14:31:34.625Z,73.82
2023-01-15T14:34:19.173Z,73.48
2023-01-15T14:36:52.168Z,72.58
2023-01-15T14:40:04.231Z,71.52
2023-01-15T14:43:03.827Z,71.70
2023-01-15T14:45:39.530Z,69.54
2023-01-15T14:48:21.954Z,68.77
2023-01-15T14:50:50.961Z,67.42
2023-01-15T14:53:43.463Z,68.59
2023-01-15T14:56:40.072Z,67.23
2023-01-15T14:59:28.698Z,67.00
2023-01-15T15:02:09.170Z,69.13
2023-01-15T15:04:55.604Z,67.30
2023-01-15T15:07:35.196Z,65.26
2023-01-15T15:10:16.718Z,66.37
2023-01-15T15:13:13.535Z,66.51
2023-01-15T15:16:10.307Z,67.77
2023-01-15T15:19:01.615Z,67.46
2023-01-15T15:21:44.198Z,66.59
2023-01-15T15:24:55.829Z,64.98
2023-01-15T15:27:24.652Z,64.85
2023-01-15T15:30:07.034Z,65.67
2023-01-15T15:32:51.091Z,64.49
2023-01-15T15:35:52.756Z,64.76
2023-01-15T15:38:22.025Z,65.33
2023-01-15T15:41:06.442Z,65.24
2023-01-15T15:44:15.785Z,64.07
2023-01-15T15:47:09.492Z,64.90
2023-01-15T15:49:49.189Z,65.37
2023-01-15T15:52:24.104Z,65.53
2023-01-15T15:55:01.524Z,65.91
2023-01-15T15:57:45.919Z,65.37
2023-01-15T16:00:57.425Z,66.35
2023-01-15T16:03:34.916Z,65.71
2023-01-15T16:06:24.140Z,66.70
2023-01-15T16:09:07.064Z,66.96
2023-01-15T16:12:07.419Z,66.67
2023-01-15T16:14:38.584Z,68.70
2023-01-15T16:17:07.932Z,69.95
2023-01-15T16:22:21.446Z,67.44
2023-01-15T16:24:59.459Z,69.30
2023-01-15T16:27:36.732Z,68.41
2023-01-15T16:30:07.300Z,67.33
2023-01-15T16:32:39.472Z,67.27
2023-01-15T16:35:27.462Z,67.58
2023-01-15T16:38:03.660Z,68.22
2023-01-15T16:40:46.064Z,70.39
2023-01-15T16:43:24.944Z,70.32
2023-01-15T16:46:26.910Z,68.13
2023-01-15T16:49:33.600Z,70.35
2023-01-15T16:52:23.804Z,69.37
2023-01-15T16:55:04.367Z,69.25
2023-01-15T16:57:40.323Z,68.49
2023-01-15T17:03:30.467Z,69.73
2023-01-15T17:06:36.068Z,71.10
2023-01-15T17:09:23.833Z,73.14
2023-01-15T17:12:21.342Z,74.55
2023-01-15T17:14:58.267Z,74.33
2023-01-15T17:17:34.088Z,74.27
2023-01-15T17:20:24.542Z,74.46
2023-01-15T17:22:59.833Z,73.96
2023-01-15T17:25:35.285Z,75.82
2023-01-15T17:28:06.461Z,75.39
2023-01-15T17:30:51.870Z,75.51
2023-01-15T17:33:28.146Z,76.10
2023-01-15T17:36:11.109Z,75.76
2023-01-15T17:38:41.963Z,75.99
2023-01-15T17:41:22.002Z,75.58
2023-01-15T17:44:00.513Z,76.16
2023-01-15T17:46:36.454Z,76.38
2023-01-15T17:49:05.885Z,77.47
2023-01-15T17:51:36.818Z,77.54
2023-01-15T17:54:09.182Z,77.29
2023-01-15T17:56:56.195Z,76.64
2023-01-15T17:59:56.598Z,76.47
2023-01-15T18:02:48.611Z,74.67
2023-01-15T18:05:52.659Z,75.57
2023-01-15T18:08:27.071Z,76.27
2023-01-15T18:11:10.522Z,76.22
2023-01-15T18:13:47.991Z,76.68
2023-01-15T18:19:03.236Z,76.84
2023-01-15T18:21:58.427Z,77.04
2023-01-15T18:24:40.478Z,77.06
2023-01-15T18:27:22.300Z,73.73
2023-01-15T18:29:51.004Z,71.50
2023-01-15T18:32:29.622Z,69.71
2023-01-15T18:35:01.966Z,68.68
2023-01-15T18:37:32.014Z,67.73
2023-01-15T18:40:05.803Z,68.25
2023-01-15T18:42:55.935Z,69.19
2023-01-15T18:45:41.551Z,70.81
2023-01-15T18:48:25.157Z,71.21
2023-01-15T18:51:06.765Z,69.62
2023-01-15T18:53:34.045Z,70.61
2023-01-15T18:56:06.858Z,69.77
2023-01-15T18:58:41.028Z,68.30
2023-01-15T19:01:10.931Z,67.54
2023-01-15T19:03:50.094Z,67.32
2023-01-15T19:06:29.999Z,68.27
2023-01-15T19:09:06.885Z,69.23
2023-01-15T19:11:43.177Z,68.35
2023-01-15T19:14:28.976Z,66.69
2023-01-15T19:17:15.615Z,66.02
2023-01-15T19:20:05.265Z,66.83
2023-01-15T19:23:06.236Z,67.69
2023-01-15T19:26:13.085Z,68.15
2023-01-15T19:29:08.783Z,70.27
2023-01-15T19:31:39.575Z,72.59
2023-01-15T19:34:32.121Z,73.16
2023-01-15T19:36:56.628Z,73.17
2023-01-15T19:39:30.169Z,74.49
2023-01-15T19:42:25.826Z,76.07
2023-01-15T19:45:11.382Z,77.58
2023-01-15T19:47:59.651Z,77.23
2023-01-15T19:50:36.740Z,77.42
2023-01-15T19:53:03.867Z,76.29
2023-01-15T19:55:35.379Z,76.08
2023-01-15T19:58:18.875Z,75.91
2023-01-15T20:01:17.736Z,75.74
2023-01-15T20:04:00.212Z,76.28
2023-01-15T20:09:26.214Z,77.54
2023-01-15T20:12:25.655Z,77.91
2023-01-15T20:15:03.131Z,78.30
2023-01-15T20:17:39.327Z,77.35
2023-01-15T20:20:06.900Z,77.43
2023-01-15T20:22:35.233Z,77.81
2023-01-15T20:25:05.334Z,77.58
2023-01-15T20:27:36.793Z,77.40
2023-01-15T20:30:30.258Z,76.94
2023-01-15T20:33:02.351Z,76.69
2023-01-15T20:35:36.603Z,76.44
2023-01-15T20:38:12.291Z,77.91
2023-01-15T20:40:40.423Z,78.52
2023-01-15T20:43:26.663Z,78.67
2023-01-15T20:45:53.733Z,78.67
2023-01-15T20:48:41.213Z,78.82
2023-01-15T20:51:12.678Z,78.85
2023-01-15T20:53:41.757Z,78.79
2023-01-15T20:56:19.173Z,78.67
2023-01-15T20:58:52.151Z,78.41
2023-01-15T21:01:19.449Z,79.01
2023-01-15T21:03:46.822Z,79.37
2023-01-15T21:06:27.800Z,78.96
2023-01-15T21:09:01.165Z,79.03
2023-01-15T21:11:43.500Z,79.05
2023-01-15T21:14:10.969Z,79.28
2023-01-15T21:16:40.845Z,78.92
2023-01-15T21:19:10.564Z,78.58
2023-01-15T21:21:56.564Z,79.97
2023-01-15T21:24:26.497Z,80.01
2023-01-15T21:27:00.670Z,80.21
2023-01-15T21:29:33.272Z,80.95
2023-01-15T21:32:10.560Z,81.04
2023-01-15T21:34:41.906Z,81.49
2023-01-15T21:37:12.627Z,81.22
2023-01-15T21:39:43.843Z,81.53
2023-01-15T21:42:47.256Z,82.09
2023-01-15T21:45:22.459Z,82.47
2023-01-15T21:47:49.833Z,82.62
2023-01-15T21:50:26.533Z,82.71
2023-01-15T21:52:56.119Z,83.24
2023-01-15T21:55:23.612Z,82.72
2023-01-15T21:57:54.269Z,82.34
2023-01-15T22:00:32.258Z,82.59
2023-01-15T22:03:01.807Z,82.50
2023-01-15T22:05:40.572Z,83.07
2023-01-15T22:08:41.687Z,84.28
2023-01-15T22:11:20.667Z,84.14
2023-01-15T22:13:52.653Z,83.83
2023-01-15T22:16:22.638Z,84.24
2023-01-15T22:18:53.733Z,83.77
2023-01-15T22:21:28.280Z,83.81
2023-01-15T22:24:10.939Z,84.28
2023-01-15T22:26:38.849Z,84.03
2023-01-15T22:31:47.696Z,82.92
2023-01-15T22:34:36.487Z,81.98
2023-01-15T22:37:12.192Z,82.29
2023-01-15T22:39:44.831Z,81.90
2023-01-15T22:42:28.100Z,81.53
2023-01-15T22:44:59.917Z,82.32
2023-01-15T22:47:29.055Z,82.55
2023-01-15T22:50:46.347Z,83.56
2023-01-15T22:53:23.891Z,83.96
2023-01-15T22:56:05.310Z,82.47
2023-01-15T22:58:35.273Z,80.81
2023-01-15T23:01:03.219Z,81.53
2023-01-15T23:03:42.207Z,80.85
2023-01-15T23:06:16.902Z,80.95
2023-01-15T23:08:51.884Z,80.75
2023-01-15T23:11:20.497Z,79.32
2023-01-15T23:13:51.679Z,79.86
2023-01-15T23:16:22.881Z,79.05
2023-01-15T23:19:02.599Z,80.15
2023-01-15T23:21:30.543Z,80.84
2023-01-15T23:24:08.693Z,81.43
2023-01-15T23:26:46.565Z,81.30
2023-01-15T23:29:21.684Z,80.33
2023-01-15T23:32:06.972Z,80.17
2023-01-15T23:34:55.733Z,79.86
2023-01-15T23:40:29.923Z,80.67
2023-01-15T23:43:23.762Z,80.98
2023-01-15T23:46:20.641Z,80.98
2023-01-15T23:48:59.657Z,81.07
2023-01-15T23:51:59.277Z,81.14
2023-01-15T23:54:34.715Z,82.42
2023-01-15T23:57:21.572Z,82.60
